Terminal Aerodrome Forecast
Issued by NWS

Home | Current Version | Previous Version | Text Only | Print | Product List | Glossary On
Versions: 1 2 3 4 5 6 7 8 9 10 11 12 13 14 15 16
000
FTUS46 KMFR 171800 AAA
TAFRBG
TAF AMD
KRBG 171815Z 1718/1818 VRB03KT P6SM SCT120 BKN140 OVC200
     FM180000 34006KT P6SM -SHRA FEW030 OVC110
     FM180600 VRB02KT P6SM VCSH SCT050 OVC100
     FM181200 VRB03KT P6SM -SHRA BKN050 OVC090=

USA.gov is the U.S. government's official web portal to all federal, state and local government web resources and services.